createdAt,value
2022-09-15T00:00:11.060Z,72.04
2022-09-15T00:01:11.065Z,71.94
2022-09-15T00:02:11.189Z,71.97
2022-09-15T00:03:11.124Z,71.93
2022-09-15T00:04:11.066Z,72.02
2022-09-15T00:05:11.065Z,72.08
2022-09-15T00:06:11.061Z,72.03
2022-09-15T00:07:11.068Z,72.17
2022-09-15T00:08:11.065Z,72.03
2022-09-15T00:09:11.066Z,72.08
2022-09-15T00:10:11.064Z,72.06
2022-09-15T00:11:21.065Z,72.15
2022-09-15T00:12:11.063Z,72.24
2022-09-15T00:13:11.072Z,72.31
2022-09-15T00:14:11.073Z,72.28
2022-09-15T00:15:11.063Z,72.48
2022-09-15T00:16:14.740Z,72.36
2022-09-15T00:17:11.122Z,72.64
2022-09-15T00:18:11.067Z,72.59
2022-09-15T00:19:11.061Z,72.58
2022-09-15T00:20:11.070Z,72.46
2022-09-15T00:21:13.061Z,72.46
2022-09-15T00:22:11.055Z,72.38
2022-09-15T00:23:11.066Z,72.49
2022-09-15T00:24:11.058Z,72.54
2022-09-15T00:25:11.055Z,72.70
2022-09-15T00:26:12.061Z,72.68
2022-09-15T00:27:11.059Z,72.59
2022-09-15T00:28:11.055Z,72.47
2022-09-15T00:29:11.060Z,72.41
2022-09-15T00:30:11.059Z,72.48
2022-09-15T00:31:12.119Z,72.50
2022-09-15T00:32:11.060Z,72.46
2022-09-15T00:33:11.059Z,72.36
2022-09-15T00:34:13.057Z,72.61
2022-09-15T00:35:11.079Z,72.79
2022-09-15T00:36:11.063Z,72.78
2022-09-15T00:37:11.058Z,73.11
2022-09-15T00:38:11.060Z,73.09
2022-09-15T00:39:11.061Z,73.16
2022-09-15T00:40:11.111Z,73.03
2022-09-15T00:41:11.059Z,73.15
2022-09-15T00:42:21.061Z,73.27
2022-09-15T00:43:11.061Z,73.17
2022-09-15T00:44:21.060Z,73.09
2022-09-15T00:45:15.061Z,73.21
2022-09-15T00:46:11.105Z,73.22
2022-09-15T00:47:19.285Z,73.33
2022-09-15T00:48:15.149Z,73.30
2022-09-15T00:49:19.084Z,73.38
2022-09-15T00:50:13.070Z,73.29
2022-09-15T00:51:11.059Z,73.38
2022-09-15T00:52:17.061Z,73.40
2022-09-15T00:53:11.064Z,73.38
2022-09-15T00:54:20.060Z,73.22
2022-09-15T00:55:20.062Z,73.17
2022-09-15T00:56:11.063Z,73.10
2022-09-15T00:57:16.071Z,73.30
2022-09-15T00:58:19.063Z,73.28
2022-09-15T00:59:14.077Z,73.31
2022-09-15T01:00:11.064Z,73.15
2022-09-15T01:01:11.169Z,73.20
2022-09-15T01:02:19.112Z,73.16
2022-09-15T01:03:11.062Z,73.10
2022-09-15T01:04:11.067Z,73.10
2022-09-15T01:05:12.071Z,72.99
2022-09-15T01:06:19.061Z,72.98
2022-09-15T01:07:14.065Z,72.98
2022-09-15T01:08:16.062Z,72.89
2022-09-15T01:09:20.064Z,72.92
2022-09-15T01:10:18.079Z,72.75
2022-09-15T01:11:11.069Z,72.75
2022-09-15T01:12:11.064Z,72.83
2022-09-15T01:13:11.072Z,72.84
2022-09-15T01:14:11.062Z,72.83
2022-09-15T01:15:11.066Z,72.73
2022-09-15T01:16:21.087Z,72.59
2022-09-15T01:17:19.067Z,72.50
2022-09-15T01:18:19.063Z,72.54
2022-09-15T01:19:19.067Z,72.50
2022-09-15T01:20:19.068Z,72.40
2022-09-15T01:21:19.060Z,72.71
2022-09-15T01:22:19.055Z,72.75
2022-09-15T01:23:19.059Z,72.58
2022-09-15T01:24:19.056Z,72.57
2022-09-15T01:25:19.066Z,72.51
2022-09-15T01:26:21.059Z,72.61
2022-09-15T01:27:40.979Z,72.50
2022-09-15T01:28:21.077Z,72.41
2022-09-15T01:29:21.237Z,72.39
2022-09-15T01:30:15.067Z,72.36
2022-09-15T01:31:19.110Z,72.27
2022-09-15T01:32:23.059Z,72.28
2022-09-15T01:33:19.064Z,72.17
2022-09-15T01:34:16.067Z,72.08
2022-09-15T01:35:20.072Z,72.17
2022-09-15T01:36:20.061Z,72.17
2022-09-15T01:37:17.063Z,72.11
2022-09-15T01:38:21.056Z,72.08
2022-09-15T01:39:17.073Z,72.25
2022-09-15T01:40:12.135Z,72.00
2022-09-15T01:41:16.059Z,71.84
2022-09-15T01:42:14.062Z,71.72
2022-09-15T01:43:11.063Z,71.73
2022-09-15T01:44:18.070Z,71.61
2022-09-15T01:45:18.059Z,71.69
2022-09-15T01:46:11.112Z,71.74
2022-09-15T01:47:11.070Z,71.65
2022-09-15T01:48:11.063Z,71.66
2022-09-15T01:49:12.063Z,71.69
2022-09-15T01:50:20.086Z,71.56
2022-09-15T01:51:11.063Z,71.40
2022-09-15T01:52:11.061Z,71.29
2022-09-15T01:53:14.066Z,71.21
2022-09-15T01:54:11.063Z,71.08
2022-09-15T01:55:16.064Z,70.95
2022-09-15T01:56:11.063Z,70.87
2022-09-15T01:57:11.071Z,70.80
2022-09-15T01:58:11.062Z,70.85
2022-09-15T01:59:11.063Z,70.91
2022-09-15T02:00:11.063Z,70.87
2022-09-15T02:01:16.168Z,70.73
2022-09-15T02:02:23.146Z,70.64
2022-09-15T02:03:18.063Z,70.63
2022-09-15T02:04:17.070Z,70.62
2022-09-15T02:05:19.066Z,70.47
2022-09-15T02:06:16.062Z,70.46
2022-09-15T02:07:19.067Z,70.40
2022-09-15T02:08:19.066Z,70.45
2022-09-15T02:09:21.076Z,70.47
2022-09-15T02:10:17.066Z,70.38
2022-09-15T02:11:19.063Z,70.33
2022-09-15T02:12:17.060Z,70.26
2022-09-15T02:13:22.065Z,70.20
2022-09-15T02:14:26.074Z,70.10
2022-09-15T02:15:14.068Z,70.13
2022-09-15T02:16:17.116Z,70.08
2022-09-15T02:17:13.065Z,69.93
2022-09-15T02:18:13.064Z,69.90
2022-09-15T02:19:23.067Z,69.89
2022-09-15T02:20:21.060Z,69.79
2022-09-15T02:21:17.055Z,69.75
2022-09-15T02:22:23.058Z,69.62
2022-09-15T02:23:20.061Z,69.58
2022-09-15T02:24:17.066Z,69.61
2022-09-15T02:25:15.062Z,69.59
2022-09-15T02:26:12.062Z,69.49
2022-09-15T02:27:16.059Z,69.54
2022-09-15T02:28:11.068Z,69.50
2022-09-15T02:29:14.058Z,69.46
2022-09-15T02:30:12.061Z,69.37
2022-09-15T02:31:13.133Z,69.41
2022-09-15T02:32:12.060Z,69.35
2022-09-15T02:33:15.058Z,69.24
2022-09-15T02:34:19.063Z,69.20
2022-09-15T02:35:11.061Z,69.18
2022-09-15T02:36:12.063Z,69.04
2022-09-15T02:37:11.059Z,69.05
2022-09-15T02:38:11.059Z,69.15
2022-09-15T02:39:13.061Z,69.05
2022-09-15T02:40:11.089Z,68.97
2022-09-15T02:41:11.061Z,68.99
2022-09-15T02:42:11.070Z,68.86
2022-09-15T02:43:12.061Z,68.81
2022-09-15T02:44:11.057Z,68.71
2022-09-15T02:45:11.063Z,68.63
2022-09-15T02:46:11.097Z,68.62
2022-09-15T02:47:11.057Z,68.54
2022-09-15T02:48:13.070Z,68.58
2022-09-15T02:49:11.063Z,68.55
2022-09-15T02:50:11.060Z,68.54
2022-09-15T02:51:11.063Z,68.53
2022-09-15T02:52:11.061Z,68.50
2022-09-15T02:53:11.061Z,68.47
2022-09-15T02:54:11.062Z,68.56
2022-09-15T02:55:11.063Z,68.52
2022-09-15T02:56:11.062Z,68.46
2022-09-15T02:57:11.062Z,68.50
2022-09-15T02:58:11.064Z,68.38
2022-09-15T02:59:11.065Z,68.33
2022-09-15T03:00:15.062Z,68.26
2022-09-15T03:01:12.171Z,68.20
2022-09-15T03:02:11.143Z,68.22
2022-09-15T03:03:11.071Z,68.22
2022-09-15T03:04:11.070Z,68.12
2022-09-15T03:05:11.064Z,68.23
2022-09-15T03:06:15.066Z,68.22
2022-09-15T03:07:11.069Z,68.14
2022-09-15T03:08:11.065Z,68.18
2022-09-15T03:09:11.060Z,68.10
2022-09-15T03:10:11.066Z,68.10
2022-09-15T03:11:11.063Z,68.07
2022-09-15T03:12:11.062Z,68.09
2022-09-15T03:13:11.065Z,68.07
2022-09-15T03:14:11.065Z,68.06
2022-09-15T03:15:11.071Z,67.96
2022-09-15T03:16:13.133Z,67.99
2022-09-15T03:17:11.071Z,67.88
2022-09-15T03:18:11.062Z,67.83
2022-09-15T03:19:11.066Z,67.83
2022-09-15T03:20:11.074Z,67.86
2022-09-15T03:21:11.058Z,67.75
2022-09-15T03:22:11.059Z,67.69
2022-09-15T03:23:11.063Z,67.78
2022-09-15T03:24:11.059Z,67.74
2022-09-15T03:25:11.058Z,67.73
2022-09-15T03:26:11.065Z,67.62
2022-09-15T03:27:11.062Z,67.64
2022-09-15T03:28:11.054Z,67.52
2022-09-15T03:29:11.062Z,67.56
2022-09-15T03:30:11.059Z,67.48
2022-09-15T03:31:11.124Z,67.46
2022-09-15T03:32:11.058Z,67.49
2022-09-15T03:33:11.059Z,67.44
2022-09-15T03:34:11.059Z,67.40
2022-09-15T03:35:11.059Z,67.42
2022-09-15T03:36:11.063Z,67.34
2022-09-15T03:37:11.060Z,67.41
2022-09-15T03:38:11.062Z,67.40
2022-09-15T03:39:11.061Z,67.27
2022-09-15T03:40:11.146Z,67.39
2022-09-15T03:41:12.061Z,67.41
2022-09-15T03:42:11.067Z,67.61
2022-09-15T03:43:14.286Z,67.47
2022-09-15T03:44:13.113Z,67.42
2022-09-15T03:45:11.068Z,67.47
2022-09-15T03:46:12.190Z,67.47
2022-09-15T03:47:11.063Z,67.51
2022-09-15T03:48:11.064Z,67.75
2022-09-15T03:49:11.065Z,67.70
2022-09-15T03:50:11.063Z,67.66
2022-09-15T03:51:11.065Z,67.71
2022-09-15T03:52:11.061Z,67.90
2022-09-15T03:53:11.065Z,67.91
2022-09-15T03:54:11.062Z,67.96
2022-09-15T03:55:11.064Z,68.06
2022-09-15T03:56:19.068Z,68.10
2022-09-15T03:57:11.063Z,68.09
2022-09-15T03:58:11.070Z,68.15
2022-09-15T03:59:11.061Z,68.21
2022-09-15T04:00:11.059Z,68.20
2022-09-15T04:01:11.255Z,68.36
2022-09-15T04:02:11.125Z,68.38
2022-09-15T04:03:11.066Z,68.38
2022-09-15T04:04:11.070Z,68.38
2022-09-15T04:05:11.064Z,68.33
2022-09-15T04:06:11.066Z,68.45
2022-09-15T04:07:11.071Z,68.66
2022-09-15T04:08:12.065Z,68.70
2022-09-15T04:09:11.062Z,68.79
2022-09-15T04:10:11.066Z,68.67
2022-09-15T04:11:11.065Z,68.54
2022-09-15T04:12:11.066Z,68.50
2022-09-15T04:13:11.069Z,68.41
2022-09-15T04:14:11.066Z,68.48
2022-09-15T04:15:11.063Z,68.38
2022-09-15T04:16:14.075Z,68.49
2022-09-15T04:17:11.071Z,68.43
2022-09-15T04:18:11.067Z,68.33
2022-09-15T04:19:11.067Z,68.33
2022-09-15T04:20:11.072Z,68.37
2022-09-15T04:21:13.056Z,68.35
2022-09-15T04:22:15.538Z,68.36
2022-09-15T04:23:13.129Z,68.34
2022-09-15T04:24:11.061Z,68.26
2022-09-15T04:25:11.065Z,68.30
2022-09-15T04:26:14.060Z,68.32
2022-09-15T04:27:11.059Z,68.25
2022-09-15T04:28:11.055Z,68.27
2022-09-15T04:29:13.059Z,68.25
2022-09-15T04:30:11.065Z,68.22
2022-09-15T04:31:11.098Z,68.10
2022-09-15T04:32:11.065Z,68.06
2022-09-15T04:33:11.068Z,68.03
2022-09-15T04:34:11.059Z,67.98
2022-09-15T04:35:11.056Z,67.88
2022-09-15T04:36:14.069Z,67.80
2022-09-15T04:37:11.085Z,67.79
2022-09-15T04:38:11.056Z,67.76
2022-09-15T04:39:11.060Z,67.72
2022-09-15T04:40:11.134Z,67.78
2022-09-15T04:41:11.058Z,67.62
2022-09-15T04:42:11.060Z,67.64
2022-09-15T04:43:11.067Z,67.61
2022-09-15T04:44:11.058Z,67.51
2022-09-15T04:45:11.059Z,67.48
2022-09-15T04:46:11.140Z,67.50
2022-09-15T04:47:11.058Z,67.66
2022-09-15T04:48:11.060Z,67.64
2022-09-15T04:49:11.062Z,67.57
2022-09-15T04:50:11.061Z,67.57
2022-09-15T04:51:15.060Z,67.54
2022-09-15T04:52:11.067Z,67.57
2022-09-15T04:53:11.060Z,67.60
2022-09-15T04:54:11.080Z,67.61
2022-09-15T04:55:11.063Z,67.62
2022-09-15T04:56:11.061Z,67.60
2022-09-15T04:57:11.059Z,67.54
2022-09-15T04:58:11.062Z,67.53
2022-09-15T04:59:15.063Z,67.42
2022-09-15T05:00:11.062Z,67.41
2022-09-15T05:01:14.158Z,67.54
2022-09-15T05:02:11.113Z,67.48
2022-09-15T05:03:11.063Z,67.51
2022-09-15T05:04:11.063Z,67.62
2022-09-15T05:05:11.065Z,67.46
2022-09-15T05:06:12.064Z,67.44
2022-09-15T05:07:11.067Z,67.37
2022-09-15T05:08:11.073Z,67.31
2022-09-15T05:09:12.063Z,67.29
2022-09-15T05:10:11.066Z,67.35
2022-09-15T05:11:12.064Z,67.27
2022-09-15T05:12:11.062Z,67.37
2022-09-15T05:13:11.065Z,67.32
2022-09-15T05:14:11.066Z,67.26
2022-09-15T05:15:11.062Z,67.17
2022-09-15T05:16:11.155Z,67.22
2022-09-15T05:17:11.066Z,67.26
2022-09-15T05:18:11.062Z,67.33
2022-09-15T05:19:11.067Z,67.33
2022-09-15T05:20:11.072Z,67.30
2022-09-15T05:21:11.059Z,67.31
2022-09-15T05:22:11.054Z,67.27
2022-09-15T05:23:11.062Z,67.32
2022-09-15T05:24:11.061Z,67.34
2022-09-15T05:25:11.054Z,67.28
2022-09-15T05:26:13.065Z,67.32
2022-09-15T05:27:11.059Z,67.30
2022-09-15T05:28:11.056Z,67.30
2022-09-15T05:29:11.066Z,67.51
2022-09-15T05:30:35.903Z,67.46
2022-09-15T05:31:13.258Z,67.40
2022-09-15T05:32:11.058Z,67.26
2022-09-15T05:33:11.060Z,67.27
2022-09-15T05:34:11.060Z,67.21
2022-09-15T05:35:11.059Z,67.22
2022-09-15T05:36:11.060Z,67.21
2022-09-15T05:37:11.059Z,67.28
2022-09-15T05:38:11.061Z,67.27
2022-09-15T05:39:11.060Z,67.17
2022-09-15T05:40:11.105Z,67.22
2022-09-15T05:41:11.061Z,67.11
2022-09-15T05:42:11.067Z,67.03
2022-09-15T05:43:11.058Z,67.01
2022-09-15T05:44:11.061Z,66.91
2022-09-15T05:45:11.067Z,66.79
2022-09-15T05:46:11.078Z,66.78
2022-09-15T05:47:11.062Z,66.73
2022-09-15T05:48:11.069Z,66.70
2022-09-15T05:49:11.058Z,66.68
2022-09-15T05:50:11.068Z,66.48
2022-09-15T05:51:11.069Z,66.36
2022-09-15T05:52:11.059Z,66.13
2022-09-15T05:53:11.062Z,65.90
2022-09-15T05:54:11.068Z,65.78
2022-09-15T05:55:11.060Z,65.68
2022-09-15T05:56:12.064Z,65.56
2022-09-15T05:57:11.069Z,65.48
2022-09-15T05:58:11.064Z,65.36
2022-09-15T05:59:11.059Z,65.33
2022-09-15T06:00:11.069Z,65.16
2022-09-15T06:01:14.061Z,64.98
2022-09-15T06:02:11.186Z,64.93
2022-09-15T06:03:14.170Z,64.82
2022-09-15T06:04:11.069Z,64.63
2022-09-15T06:05:11.062Z,64.50
2022-09-15T06:06:11.063Z,64.34
2022-09-15T06:07:11.071Z,64.25
2022-09-15T06:08:11.061Z,64.17
2022-09-15T06:09:11.064Z,64.03
2022-09-15T06:10:11.071Z,64.02
2022-09-15T06:11:14.061Z,63.83
2022-09-15T06:12:11.069Z,63.79
2022-09-15T06:13:11.071Z,63.82
2022-09-15T06:14:11.065Z,63.72
2022-09-15T06:15:11.060Z,63.69
2022-09-15T06:16:14.145Z,63.69
2022-09-15T06:17:11.064Z,63.64
2022-09-15T06:18:11.064Z,63.58
2022-09-15T06:19:11.063Z,63.52
2022-09-15T06:20:11.077Z,63.49
2022-09-15T06:21:14.057Z,63.50
2022-09-15T06:22:11.061Z,63.46
2022-09-15T06:23:11.066Z,63.38
2022-09-15T06:24:13.055Z,63.38
2022-09-15T06:25:11.060Z,63.33
2022-09-15T06:26:11.065Z,63.29
2022-09-15T06:27:11.060Z,63.27
2022-09-15T06:28:11.060Z,63.23
2022-09-15T06:29:13.066Z,63.20
2022-09-15T06:30:11.059Z,63.21
2022-09-15T06:31:13.055Z,63.41
2022-09-15T06:32:11.171Z,63.52
2022-09-15T06:33:11.061Z,63.50
2022-09-15T06:34:11.060Z,63.64
2022-09-15T06:35:11.057Z,63.49
2022-09-15T06:36:11.059Z,63.46
2022-09-15T06:37:11.061Z,63.44
2022-09-15T06:38:11.059Z,63.38
2022-09-15T06:39:11.059Z,63.34
2022-09-15T06:40:11.117Z,63.34
2022-09-15T06:41:11.062Z,63.24
2022-09-15T06:42:13.819Z,63.30
2022-09-15T06:43:11.060Z,63.26
2022-09-15T06:44:11.059Z,63.27
2022-09-15T06:45:11.062Z,63.25
2022-09-15T06:46:11.136Z,63.19
2022-09-15T06:47:11.081Z,63.12
2022-09-15T06:48:24.125Z,63.32
2022-09-15T06:49:13.115Z,63.29
2022-09-15T06:50:11.063Z,63.27
2022-09-15T06:51:12.068Z,63.30
2022-09-15T06:52:11.059Z,63.28
2022-09-15T06:53:11.063Z,63.29
2022-09-15T06:54:11.065Z,63.32
2022-09-15T06:55:11.065Z,63.39
2022-09-15T06:56:12.065Z,63.23
2022-09-15T06:57:11.063Z,63.26
2022-09-15T06:58:11.063Z,63.26
2022-09-15T06:59:13.061Z,63.22
2022-09-15T07:00:11.062Z,63.22
2022-09-15T07:01:12.093Z,63.17
2022-09-15T07:02:11.201Z,63.19
2022-09-15T07:03:11.234Z,63.08
2022-09-15T07:04:11.065Z,63.11
2022-09-15T07:05:11.063Z,63.01
2022-09-15T07:06:11.065Z,63.04
2022-09-15T07:07:11.070Z,62.92
2022-09-15T07:08:11.062Z,62.82
2022-09-15T07:09:11.064Z,62.76
2022-09-15T07:10:11.070Z,62.83
2022-09-15T07:11:11.064Z,62.70
2022-09-15T07:12:11.067Z,62.56
2022-09-15T07:13:11.073Z,62.43
2022-09-15T07:14:11.066Z,62.30
2022-09-15T07:15:11.063Z,62.34
2022-09-15T07:16:13.222Z,62.13
2022-09-15T07:17:11.066Z,61.97
2022-09-15T07:18:11.060Z,61.80
2022-09-15T07:19:11.067Z,61.70
2022-09-15T07:20:11.065Z,61.64
2022-09-15T07:21:17.060Z,61.41
2022-09-15T07:22:11.057Z,61.30
2022-09-15T07:23:11.059Z,61.28
2022-09-15T07:24:11.060Z,61.05
2022-09-15T07:25:11.073Z,60.86
2022-09-15T07:26:15.067Z,60.86
2022-09-15T07:27:11.064Z,60.79
2022-09-15T07:28:11.061Z,60.79
2022-09-15T07:29:11.060Z,60.75
2022-09-15T07:30:12.061Z,60.75
2022-09-15T07:31:11.184Z,60.78
2022-09-15T07:32:11.062Z,60.67
2022-09-15T07:33:11.061Z,60.68
2022-09-15T07:34:11.056Z,60.72
2022-09-15T07:35:11.062Z,60.82
2022-09-15T07:36:11.064Z,60.96
2022-09-15T07:37:11.055Z,60.74
2022-09-15T07:38:11.062Z,60.83
2022-09-15T07:39:11.059Z,60.85
2022-09-15T07:40:11.128Z,60.75
2022-09-15T07:41:13.069Z,60.79
2022-09-15T07:42:11.064Z,60.94
2022-09-15T07:43:11.058Z,60.82
2022-09-15T07:44:11.060Z,60.82
2022-09-15T07:45:12.062Z,60.83
2022-09-15T07:46:11.117Z,60.87
2022-09-15T07:47:11.061Z,60.84
2022-09-15T07:48:11.077Z,60.80
2022-09-15T07:49:11.058Z,60.76
2022-09-15T07:50:11.062Z,60.71
2022-09-15T07:51:11.069Z,60.75
2022-09-15T07:52:11.062Z,60.73
2022-09-15T07:53:11.063Z,60.71
2022-09-15T07:54:11.068Z,60.68
2022-09-15T07:55:11.065Z,60.62
2022-09-15T07:56:11.064Z,60.59
2022-09-15T07:57:11.068Z,60.57
2022-09-15T07:58:11.060Z,60.66
2022-09-15T07:59:11.065Z,60.61
2022-09-15T08:00:11.070Z,60.60
2022-09-15T08:01:11.282Z,60.57
2022-09-15T08:02:16.100Z,60.30
2022-09-15T08:03:11.063Z,60.40
2022-09-15T08:04:11.065Z,60.25
2022-09-15T08:05:11.060Z,60.09
2022-09-15T08:06:11.063Z,59.85
2022-09-15T08:07:11.066Z,59.71
2022-09-15T08:08:11.066Z,59.50
2022-09-15T08:09:11.065Z,59.19
2022-09-15T08:10:11.064Z,59.21
2022-09-15T08:11:15.152Z,59.07
2022-09-15T08:12:13.608Z,59.00
2022-09-15T08:13:11.072Z,58.77
2022-09-15T08:14:11.064Z,58.68
2022-09-15T08:15:11.061Z,58.51
2022-09-15T08:16:11.172Z,58.37
2022-09-15T08:17:11.761Z,58.30
2022-09-15T08:18:11.061Z,58.21
2022-09-15T08:19:11.073Z,58.17
2022-09-15T08:20:11.070Z,58.15
2022-09-15T08:21:11.058Z,58.12
2022-09-15T08:22:11.059Z,57.93
2022-09-15T08:23:11.069Z,58.07
2022-09-15T08:24:11.057Z,58.13
2022-09-15T08:25:11.065Z,58.06
2022-09-15T08:26:14.128Z,58.15
2022-09-15T08:27:11.056Z,58.20
2022-09-15T08:28:11.062Z,58.22
2022-09-15T08:29:11.062Z,58.26
2022-09-15T08:30:11.055Z,58.32
2022-09-15T08:31:12.129Z,58.23
2022-09-15T08:32:11.061Z,58.13
2022-09-15T08:33:11.059Z,58.13
2022-09-15T08:34:12.060Z,57.83
2022-09-15T08:35:11.060Z,57.89
2022-09-15T08:36:11.057Z,57.91
2022-09-15T08:37:11.059Z,57.78
2022-09-15T08:38:11.062Z,57.70
2022-09-15T08:39:11.107Z,57.60
2022-09-15T08:40:16.116Z,57.58
2022-09-15T08:41:19.073Z,57.53
2022-09-15T08:42:18.061Z,57.35
2022-09-15T08:43:20.067Z,57.40
2022-09-15T08:44:20.060Z,57.42
2022-09-15T08:45:19.063Z,57.30
2022-09-15T08:46:15.127Z,57.27
2022-09-15T08:47:16.059Z,57.27
2022-09-15T08:48:15.057Z,57.35
2022-09-15T08:49:35.798Z,57.11
2022-09-15T08:50:21.083Z,56.88
2022-09-15T08:51:16.063Z,56.49
2022-09-15T08:52:21.060Z,56.66
2022-09-15T08:53:23.057Z,56.57
2022-09-15T08:54:17.064Z,56.43
2022-09-15T08:55:19.066Z,56.50
2022-09-15T08:56:15.071Z,56.26
2022-09-15T08:57:14.062Z,56.01
2022-09-15T08:58:19.065Z,55.81
2022-09-15T08:59:15.063Z,55.69
2022-09-15T09:00:15.071Z,55.58
2022-09-15T09:01:21.080Z,55.33
2022-09-15T09:02:19.091Z,55.35
2022-09-15T09:03:21.065Z,55.22
2022-09-15T09:04:19.064Z,55.17
2022-09-15T09:05:19.071Z,55.04
2022-09-15T09:06:19.065Z,54.98
2022-09-15T09:07:19.064Z,55.02
2022-09-15T09:08:21.061Z,54.90
2022-09-15T09:09:19.068Z,54.91
2022-09-15T09:10:19.070Z,55.11
2022-09-15T09:11:20.073Z,55.12
2022-09-15T09:12:19.065Z,55.40
2022-09-15T09:13:19.063Z,55.38
2022-09-15T09:14:19.067Z,55.46
2022-09-15T09:15:19.069Z,55.58
2022-09-15T09:16:19.202Z,55.65
2022-09-15T09:17:21.066Z,55.64
2022-09-15T09:18:21.063Z,55.70
2022-09-15T09:19:19.061Z,55.69
2022-09-15T09:20:19.065Z,55.60
2022-09-15T09:21:21.065Z,55.47
2022-09-15T09:22:16.059Z,55.29
2022-09-15T09:23:14.060Z,55.38
2022-09-15T09:24:21.061Z,55.30
2022-09-15T09:25:26.714Z,55.30
2022-09-15T09:26:15.877Z,55.28
2022-09-15T09:27:13.058Z,55.00
2022-09-15T09:28:21.055Z,54.78
2022-09-15T09:29:18.058Z,54.54
2022-09-15T09:30:18.067Z,54.29
2022-09-15T09:31:19.143Z,54.01
2022-09-15T09:32:21.651Z,53.95
2022-09-15T09:33:19.056Z,53.94
2022-09-15T09:34:19.060Z,53.94
2022-09-15T09:35:19.073Z,53.84
2022-09-15T09:36:11.059Z,53.96
2022-09-15T09:37:14.059Z,53.97
2022-09-15T09:38:17.059Z,53.84
2022-09-15T09:39:14.064Z,53.91
2022-09-15T09:40:14.117Z,53.81
2022-09-15T09:41:14.057Z,53.89
2022-09-15T09:42:16.060Z,53.63
2022-09-15T09:43:11.069Z,53.49
2022-09-15T09:44:14.063Z,53.37
2022-09-15T09:45:15.064Z,53.69
2022-09-15T09:46:13.110Z,53.71
2022-09-15T09:47:11.063Z,53.63
2022-09-15T09:48:19.057Z,53.41
2022-09-15T09:49:18.061Z,53.39
2022-09-15T09:50:19.063Z,53.32
2022-09-15T09:51:19.063Z,53.16
2022-09-15T09:52:11.059Z,52.86
2022-09-15T09:53:19.063Z,52.50
2022-09-15T09:54:14.071Z,52.38
2022-09-15T09:55:19.061Z,52.24
2022-09-15T09:56:21.058Z,52.15
2022-09-15T09:57:19.065Z,51.89
2022-09-15T09:58:17.070Z,51.94
2022-09-15T09:59:19.064Z,52.06
2022-09-15T10:00:21.062Z,52.22
2022-09-15T10:01:14.124Z,52.18
2022-09-15T10:02:20.065Z,52.06
2022-09-15T10:03:19.066Z,51.96
2022-09-15T10:04:18.066Z,51.69
2022-09-15T10:05:18.131Z,52.00
2022-09-15T10:06:18.066Z,51.65
2022-09-15T10:07:11.060Z,51.56
2022-09-15T10:08:18.072Z,51.57
2022-09-15T10:09:14.066Z,51.54
2022-09-15T10:10:19.066Z,51.54
2022-09-15T10:11:11.064Z,51.38
2022-09-15T10:12:19.065Z,51.28
2022-09-15T10:13:12.067Z,51.41
2022-09-15T10:14:18.071Z,51.12
2022-09-15T10:15:21.066Z,50.87
2022-09-15T10:16:11.091Z,50.91
2022-09-15T10:17:19.073Z,50.81
2022-09-15T10:18:19.068Z,50.51
2022-09-15T10:19:13.065Z,50.26
2022-09-15T10:20:19.065Z,50.29
2022-09-15T10:21:11.059Z,50.26
2022-09-15T10:22:15.067Z,50.41
2022-09-15T10:23:21.055Z,50.51
2022-09-15T10:24:19.057Z,50.63
2022-09-15T10:25:19.068Z,50.87
2022-09-15T10:26:19.059Z,50.83
2022-09-15T10:27:19.073Z,50.73
2022-09-15T10:28:15.074Z,50.84
2022-09-15T10:29:15.058Z,50.86
2022-09-15T10:30:18.057Z,50.87
2022-09-15T10:31:18.165Z,50.60
2022-09-15T10:32:22.955Z,50.53
2022-09-15T10:33:21.872Z,50.43
2022-09-15T10:34:19.057Z,50.59
2022-09-15T10:35:17.060Z,50.58
2022-09-15T10:36:20.070Z,50.60
2022-09-15T10:37:17.062Z,50.61
2022-09-15T10:38:18.060Z,50.69
2022-09-15T10:39:21.061Z,50.65
2022-09-15T10:40:21.173Z,50.81
2022-09-15T10:41:19.074Z,51.06
2022-09-15T10:42:19.064Z,51.24
2022-09-15T10:43:19.061Z,51.45
2022-09-15T10:44:19.062Z,51.62
2022-09-15T10:45:18.070Z,51.77
2022-09-15T10:46:19.127Z,51.71
2022-09-15T10:47:21.062Z,51.95
2022-09-15T10:48:21.058Z,52.06
2022-09-15T10:49:21.064Z,52.14
2022-09-15T10:50:21.071Z,52.10
2022-09-15T10:51:21.071Z,52.25
2022-09-15T10:52:21.063Z,52.28
2022-09-15T10:53:21.061Z,52.25
2022-09-15T10:54:21.063Z,52.27
2022-09-15T10:55:31.834Z,52.35
2022-09-15T10:56:23.073Z,52.45
2022-09-15T10:57:21.117Z,52.34
2022-09-15T10:58:19.075Z,52.26
2022-09-15T10:59:21.063Z,52.12
2022-09-15T11:00:23.062Z,52.10
2022-09-15T11:01:19.111Z,52.34
2022-09-15T11:02:19.200Z,51.97
2022-09-15T11:03:21.071Z,51.99
2022-09-15T11:04:21.067Z,51.81
2022-09-15T11:05:22.494Z,51.30
2022-09-15T11:06:17.068Z,51.19
2022-09-15T11:07:19.065Z,51.18
2022-09-15T11:08:19.101Z,50.96
2022-09-15T11:09:19.106Z,50.98
2022-09-15T11:10:19.063Z,51.13
2022-09-15T11:11:19.062Z,50.86
2022-09-15T11:12:21.084Z,50.71
2022-09-15T11:13:19.069Z,50.59
2022-09-15T11:14:21.066Z,50.57
2022-09-15T11:15:19.066Z,50.37
2022-09-15T11:16:21.184Z,50.29
2022-09-15T11:17:19.062Z,50.45
2022-09-15T11:18:21.066Z,50.51
2022-09-15T11:19:19.073Z,50.53
2022-09-15T11:20:19.066Z,50.55
2022-09-15T11:21:19.059Z,50.46
2022-09-15T11:22:19.058Z,50.53
2022-09-15T11:23:20.059Z,50.27
2022-09-15T11:24:21.069Z,50.08
2022-09-15T11:25:20.086Z,49.97
2022-09-15T11:26:19.055Z,50.17
2022-09-15T11:27:19.053Z,50.15
2022-09-15T11:28:18.057Z,50.17
2022-09-15T11:29:19.065Z,50.30
2022-09-15T11:30:16.065Z,50.22
2022-09-15T11:31:16.079Z,50.13
2022-09-15T11:32:17.060Z,50.19
2022-09-15T11:33:17.087Z,50.12
2022-09-15T11:34:19.056Z,49.95
2022-09-15T11:35:19.055Z,49.85
2022-09-15T11:36:20.058Z,49.55
2022-09-15T11:37:17.067Z,49.52
2022-09-15T11:38:19.060Z,49.44
2022-09-15T11:39:20.119Z,49.51
2022-09-15T11:40:21.132Z,49.59
2022-09-15T11:41:19.060Z,49.47
2022-09-15T11:42:21.077Z,49.30
2022-09-15T11:43:18.071Z,48.94
2022-09-15T11:44:19.061Z,48.40
2022-09-15T11:45:19.061Z,47.58
2022-09-15T11:46:14.103Z,47.38
2022-09-15T11:47:19.075Z,46.85
2022-09-15T11:48:19.063Z,46.70
2022-09-15T11:49:19.060Z,46.47
2022-09-15T11:50:20.064Z,46.42
2022-09-15T11:51:11.061Z,46.28
2022-09-15T11:52:21.061Z,46.36
2022-09-15T11:53:15.065Z,46.46
2022-09-15T11:54:21.062Z,45.84
2022-09-15T11:55:21.065Z,45.64
2022-09-15T11:56:19.062Z,45.81
2022-09-15T11:57:16.074Z,45.99
2022-09-15T11:58:22.105Z,46.09
2022-09-15T11:59:19.062Z,45.81
2022-09-15T12:00:14.059Z,45.56
2022-09-15T12:01:18.070Z,45.54
2022-09-15T12:02:19.175Z,45.55
2022-09-15T12:03:19.160Z,45.69
2022-09-15T12:04:15.063Z,45.78
2022-09-15T12:05:17.065Z,45.90
2022-09-15T12:06:21.064Z,45.98
2022-09-15T12:07:17.065Z,46.04
2022-09-15T12:08:20.060Z,46.25
2022-09-15T12:09:15.077Z,46.44
2022-09-15T12:10:17.102Z,46.77
2022-09-15T12:11:18.067Z,46.98
2022-09-15T12:12:16.069Z,47.41
2022-09-15T12:13:18.065Z,48.22
2022-09-15T12:14:14.075Z,48.94
2022-09-15T12:15:18.066Z,49.53
2022-09-15T12:16:11.212Z,50.06
2022-09-15T12:17:19.067Z,50.26
2022-09-15T12:18:37.175Z,50.58
2022-09-15T12:19:21.113Z,50.85
2022-09-15T12:20:18.065Z,51.08
2022-09-15T12:21:19.058Z,51.16
2022-09-15T12:22:19.061Z,51.31
2022-09-15T12:23:19.060Z,51.41
2022-09-15T12:24:17.057Z,51.48
2022-09-15T12:25:18.060Z,51.52
2022-09-15T12:26:20.056Z,51.48
2022-09-15T12:27:16.060Z,51.30
2022-09-15T12:28:19.105Z,51.22
2022-09-15T12:29:19.058Z,51.01
2022-09-15T12:30:19.059Z,50.60
2022-09-15T12:31:21.127Z,50.44
2022-09-15T12:32:21.063Z,50.24
2022-09-15T12:33:19.071Z,49.71
2022-09-15T12:34:19.059Z,49.59
2022-09-15T12:35:21.059Z,49.37
2022-09-15T12:36:19.057Z,49.21
2022-09-15T12:37:17.067Z,49.49
2022-09-15T12:38:14.070Z,49.43
2022-09-15T12:39:20.059Z,49.33
2022-09-15T12:40:19.116Z,49.17
2022-09-15T12:41:11.065Z,49.12
2022-09-15T12:42:19.072Z,49.17
2022-09-15T12:43:19.061Z,49.12
2022-09-15T12:44:19.060Z,49.20
2022-09-15T12:45:19.061Z,49.27
2022-09-15T12:46:17.107Z,49.25
2022-09-15T12:47:19.063Z,49.42
2022-09-15T12:48:18.063Z,49.54
2022-09-15T12:49:17.061Z,49.55
2022-09-15T12:50:19.062Z,49.45
2022-09-15T12:51:11.063Z,48.91
2022-09-15T12:52:11.063Z,48.71